createdAt,value
2024-02-24T00:04:23.206Z,98941.63
2024-02-24T00:09:28.302Z,98943.00
2024-02-24T00:14:32.393Z,98938.88
2024-02-24T00:19:36.064Z,98935.59
2024-02-24T00:24:41.091Z,98946.09
2024-02-24T00:29:44.882Z,98933.94
2024-02-24T00:34:48.586Z,98948.22
2024-02-24T00:39:53.950Z,98940.06
2024-02-24T00:44:57.553Z,98945.81
2024-02-24T00:50:01.298Z,98941.47
2024-02-24T00:55:06.831Z,98939.22
2024-02-24T01:00:11.906Z,98937.88
2024-02-24T01:05:15.585Z,98939.53
2024-02-24T01:10:20.663Z,98935.41
2024-02-24T01:15:25.678Z,98943.03
2024-02-24T01:20:30.444Z,98934.53
2024-02-24T01:25:35.995Z,98940.00
2024-02-24T01:30:39.612Z,98945.34
2024-02-24T01:35:43.410Z,98930.97
2024-02-24T01:40:48.436Z,98926.50
2024-02-24T01:45:52.823Z,98937.13
2024-02-24T01:50:56.799Z,98921.28
2024-02-24T01:56:03.376Z,98936.31
2024-02-24T02:01:08.271Z,98942.34
2024-02-24T02:06:12.420Z,98932.66
2024-02-24T02:11:17.822Z,98925.88
2024-02-24T02:16:21.777Z,98925.81
2024-02-24T02:21:26.400Z,98933.06
2024-02-24T02:26:31.721Z,98936.13
2024-02-24T02:31:35.588Z,98941.16
2024-02-24T02:36:39.293Z,98935.53
2024-02-24T02:41:44.495Z,98935.13
2024-02-24T02:46:49.185Z,98938.53
2024-02-24T02:51:52.836Z,98947.03
2024-02-24T02:56:57.844Z,98937.53
2024-02-24T03:02:01.450Z,98943.13
2024-02-24T03:07:05.575Z,98950.88
2024-02-24T03:12:10.975Z,98942.56
2024-02-24T03:17:14.943Z,98953.03
2024-02-24T03:22:18.738Z,98964.53
2024-02-24T03:27:23.795Z,98968.13
2024-02-24T03:32:28.072Z,98965.66
2024-02-24T03:37:31.820Z,98969.56
2024-02-24T03:42:37.287Z,98974.59
2024-02-24T03:47:41.546Z,98969.59
2024-02-24T03:52:47.087Z,98973.72
2024-02-24T03:57:52.292Z,98966.63
2024-02-24T04:02:55.857Z,98978.06
2024-02-24T04:07:59.508Z,98969.72
2024-02-24T04:13:04.771Z,98967.78
2024-02-24T04:18:09.584Z,98969.16
2024-02-24T04:23:13.871Z,98966.38
2024-02-24T04:28:21.965Z,98979.47
2024-02-24T04:33:26.524Z,98994.72
2024-02-24T04:38:30.797Z,98980.00
2024-02-24T04:43:37.224Z,98988.44
2024-02-24T04:48:41.272Z,99005.44
2024-02-24T04:53:45.360Z,99009.03
2024-02-24T04:58:50.363Z,99002.59
2024-02-24T05:03:55.054Z,99008.88
2024-02-24T05:08:59.165Z,99009.84
2024-02-24T05:14:04.565Z,99014.84
2024-02-24T05:19:08.548Z,99022.91
2024-02-24T05:24:12.301Z,99005.41
2024-02-24T05:29:17.715Z,99025.38
2024-02-24T05:34:21.598Z,99038.44
2024-02-24T05:39:25.638Z,99046.09
2024-02-24T05:44:31.103Z,99049.16
2024-02-24T05:49:34.893Z,99055.69
2024-02-24T05:54:41.290Z,99057.91
2024-02-24T05:59:46.809Z,99068.59
2024-02-24T06:04:50.497Z,99075.00
2024-02-24T06:09:54.160Z,99073.88
2024-02-24T06:14:59.162Z,99078.91
2024-02-24T06:20:03.003Z,99068.88
2024-02-24T06:25:07.425Z,99081.47
2024-02-24T06:30:14.002Z,99089.97
2024-02-24T06:35:17.708Z,99102.59
2024-02-24T06:40:29.583Z,99107.25
2024-02-24T06:45:42.194Z,99115.31
2024-02-24T06:50:46.005Z,99119.28
2024-02-24T06:55:49.665Z,99125.28
2024-02-24T07:00:54.707Z,99114.94
2024-02-24T07:05:58.472Z,99131.19
2024-02-24T07:11:02.366Z,99136.88
2024-02-24T07:16:08.588Z,99126.75
2024-02-24T07:21:12.545Z,99129.84
2024-02-24T07:26:16.425Z,99134.75
2024-02-24T07:31:21.493Z,99140.38
2024-02-24T07:36:26.268Z,99141.78
2024-02-24T07:41:29.983Z,99146.31
2024-02-24T07:46:35.153Z,99153.22
2024-02-24T07:51:40.091Z,99157.13
2024-02-24T07:56:43.893Z,99157.88
2024-02-24T08:01:48.962Z,99162.81
2024-02-24T08:06:52.641Z,99172.91
2024-02-24T08:11:56.553Z,99159.44
2024-02-24T08:17:01.769Z,99169.81
2024-02-24T08:22:05.542Z,99179.00
2024-02-24T08:27:09.331Z,99180.09
2024-02-24T08:32:14.411Z,99177.00
2024-02-24T08:37:18.010Z,99183.69
2024-02-24T08:42:21.723Z,99185.63
2024-02-24T08:47:26.873Z,99192.41
2024-02-24T08:52:38.034Z,99186.56
2024-02-24T08:57:46.766Z,99192.97
2024-02-24T09:02:51.902Z,99184.09
2024-02-24T09:07:55.617Z,99200.47
2024-02-24T09:12:59.548Z,99198.03
2024-02-24T09:18:08.241Z,99207.72
2024-02-24T09:23:12.096Z,99197.78
2024-02-24T09:28:15.736Z,99198.34
2024-02-24T09:33:21.288Z,99197.16
2024-02-24T09:38:25.430Z,99208.31
2024-02-24T09:43:29.158Z,99208.63
2024-02-24T09:48:34.479Z,99209.75
2024-02-24T09:53:38.785Z,99214.28
2024-02-24T09:58:43.013Z,99214.25
2024-02-24T10:03:50.150Z,99207.03
2024-02-24T10:08:54.466Z,99209.97
2024-02-24T10:13:58.175Z,99206.72
2024-02-24T10:19:05.820Z,99218.50
2024-02-24T10:24:09.619Z,99225.09
2024-02-24T10:29:13.631Z,99230.25
2024-02-24T10:34:19.142Z,99230.81
2024-02-24T10:39:22.997Z,99246.38
2024-02-24T10:44:26.930Z,99244.69
2024-02-24T10:49:32.393Z,99238.28
2024-02-24T10:54:38.878Z,99235.06
2024-02-24T10:59:42.674Z,99241.84
2024-02-24T11:04:48.116Z,99242.94
2024-02-24T11:09:54.404Z,99244.63
2024-02-24T11:14:58.733Z,99242.84
2024-02-24T11:20:04.608Z,99254.00
2024-02-24T11:25:08.512Z,99264.63
2024-02-24T11:30:44.637Z,99265.81
2024-02-24T11:35:50.280Z,99257.03
2024-02-24T11:40:54.344Z,99249.66
2024-02-24T11:45:58.041Z,99260.69
2024-02-24T11:51:03.020Z,99270.00
2024-02-24T11:56:08.123Z,99263.00
2024-02-24T12:01:14.686Z,99262.69
2024-02-24T12:06:20.599Z,99272.97
2024-02-24T12:11:24.456Z,99278.78
2024-02-24T12:16:29.107Z,99285.47
2024-02-24T12:21:34.183Z,99281.09
2024-02-24T12:26:37.860Z,99279.94
2024-02-24T12:31:42.443Z,99284.34
2024-02-24T12:36:47.743Z,99285.97
2024-02-24T12:41:52.237Z,99293.69
2024-02-24T12:46:55.935Z,99282.78
2024-02-24T12:52:00.996Z,99283.03
2024-02-24T12:57:05.087Z,99277.78
2024-02-24T13:02:08.905Z,99283.84
2024-02-24T13:07:13.976Z,99290.38
2024-02-24T13:12:17.839Z,99283.44
2024-02-24T13:17:22.641Z,99298.16
2024-02-24T13:22:27.851Z,99281.59
2024-02-24T13:27:31.456Z,99290.78
2024-02-24T13:32:35.500Z,99293.25
2024-02-24T13:37:40.577Z,99303.91
2024-02-24T13:42:44.252Z,99303.81
2024-02-24T13:47:51.020Z,99308.88
2024-02-24T13:52:58.927Z,99310.72
2024-02-24T13:58:04.228Z,99319.69
2024-02-24T14:03:09.844Z,99313.75
2024-02-24T14:08:15.043Z,99314.91
2024-02-24T14:13:18.743Z,99323.84
2024-02-24T14:18:22.520Z,99333.59
2024-02-24T14:23:27.740Z,99345.63
2024-02-24T14:28:31.494Z,99376.78
2024-02-24T14:33:35.481Z,99401.88
2024-02-24T14:38:40.684Z,99411.19
2024-02-24T14:43:44.566Z,99403.84
2024-02-24T14:48:50.049Z,99399.13
2024-02-24T14:53:55.303Z,99400.59
2024-02-24T14:58:58.974Z,99397.38
2024-02-24T15:04:02.688Z,99410.78
2024-02-24T15:09:09.573Z,99407.31
2024-02-24T15:14:13.369Z,99408.44
2024-02-24T15:19:17.584Z,99406.91
2024-02-24T15:24:22.658Z,99420.34
2024-02-24T15:29:26.389Z,99427.94
2024-02-24T15:34:30.257Z,99431.41
2024-02-24T15:39:35.331Z,99441.16
2024-02-24T15:44:38.978Z,99448.00
2024-02-24T15:49:42.932Z,99463.22
2024-02-24T15:54:48.179Z,99461.53
2024-02-24T15:59:51.826Z,99486.91
2024-02-24T16:04:55.869Z,99497.81
2024-02-24T16:10:00.975Z,99505.41
2024-02-24T16:15:04.941Z,99506.41
2024-02-24T16:20:09.784Z,99493.28
2024-02-24T16:25:17.229Z,99504.38
2024-02-24T16:30:22.472Z,99509.69
2024-02-24T16:35:27.765Z,99509.56
2024-02-24T16:40:32.946Z,99514.84
2024-02-24T16:45:37.218Z,99533.94
2024-02-24T16:50:41.408Z,99530.69
2024-02-24T16:55:47.842Z,99532.91
2024-02-24T17:00:51.928Z,99539.53
2024-02-24T17:05:55.968Z,99536.94
2024-02-24T17:11:01.182Z,99552.44
2024-02-24T17:16:06.302Z,99549.84
2024-02-24T17:21:10.491Z,99552.91
2024-02-24T17:26:18.488Z,99560.75
2024-02-24T17:31:22.357Z,99571.94
2024-02-24T17:36:26.039Z,99572.38
2024-02-24T17:41:31.174Z,99574.31
2024-02-24T17:46:37.957Z,99581.19
2024-02-24T17:51:42.715Z,99583.47
2024-02-24T17:56:47.851Z,99577.34
2024-02-24T18:01:51.662Z,99595.19
2024-02-24T18:06:55.518Z,99594.88
2024-02-24T18:12:01.572Z,99599.41
2024-02-24T18:17:05.533Z,99594.66
2024-02-24T18:22:09.111Z,99596.63
2024-02-24T18:27:14.346Z,99593.13
2024-02-24T18:32:18.062Z,99595.22
2024-02-24T18:37:21.890Z,99601.66
2024-02-24T18:42:27.169Z,99602.13
2024-02-24T18:47:30.847Z,99607.00
2024-02-24T18:52:34.830Z,99612.41
2024-02-24T18:57:39.844Z,99610.19
2024-02-24T19:02:43.950Z,99619.38
2024-02-24T19:07:51.164Z,99622.47
2024-02-24T19:12:56.507Z,99618.88
2024-02-24T19:18:00.293Z,99624.16
2024-02-24T19:23:04.753Z,99624.16
2024-02-24T19:28:09.721Z,99621.94
2024-02-24T19:33:13.480Z,99635.72
2024-02-24T19:38:17.256Z,99644.53
2024-02-24T19:43:22.425Z,99632.81
2024-02-24T19:48:26.258Z,99648.66
2024-02-24T19:53:30.198Z,99638.09
2024-02-24T19:58:39.444Z,99637.81
2024-02-24T20:03:49.002Z,99645.78
2024-02-24T20:08:53.014Z,99652.16
2024-02-24T20:13:58.241Z,99659.53
2024-02-24T20:19:01.984Z,99653.16
2024-02-24T20:24:06.208Z,99653.41
2024-02-24T20:29:11.223Z,99654.81
2024-02-24T20:34:15.134Z,99655.31
2024-02-24T20:39:18.837Z,99668.44
2024-02-24T20:44:24.327Z,99663.03
2024-02-24T20:49:28.656Z,99664.81
2024-02-24T20:54:36.512Z,99668.44
2024-02-24T20:59:41.551Z,99660.94
2024-02-24T21:04:45.139Z,99667.88
2024-02-24T21:09:48.956Z,99680.28
2024-02-24T21:14:53.987Z,99675.00
2024-02-24T21:20:04.364Z,99683.75
2024-02-24T21:25:10.980Z,99689.59
2024-02-24T21:30:16.706Z,99691.44
2024-02-24T21:35:21.113Z,99704.06
2024-02-24T21:40:24.835Z,99709.16
2024-02-24T21:45:29.908Z,99709.22
2024-02-24T21:50:33.739Z,99711.81
2024-02-24T21:55:37.535Z,99710.56
2024-02-24T22:00:42.510Z,99708.28
2024-02-24T22:05:46.361Z,99721.16
2024-02-24T22:10:50.167Z,99723.13
2024-02-24T22:15:57.099Z,99729.63
2024-02-24T22:21:01.314Z,99725.38
2024-02-24T22:26:05.176Z,99733.19
2024-02-24T22:31:10.221Z,99730.78
2024-02-24T22:36:14.285Z,99738.06
2024-02-24T22:41:19.034Z,99744.78
2024-02-24T22:46:26.962Z,99747.63
2024-02-24T22:51:30.918Z,99746.91
2024-02-24T22:56:36.234Z,99741.50
2024-02-24T23:01:45.624Z,99742.03
2024-02-24T23:06:49.892Z,99751.94
2024-02-24T23:11:53.707Z,99746.63
2024-02-24T23:16:58.819Z,99739.72
2024-02-24T23:22:02.539Z,99745.34
2024-02-24T23:27:06.741Z,99750.03
2024-02-24T23:32:12.140Z,99745.22
2024-02-24T23:37:16.821Z,99738.88
2024-02-24T23:42:20.870Z,99742.75
2024-02-24T23:47:26.032Z,99738.81
2024-02-24T23:52:29.785Z,99734.06
2024-02-24T23:57:35.591Z,99727.75
